Terminal Aerodrome Forecast
Issued by NWS Wakefield, VA

Home | Current Version | Previous Version | Text Only | Print | Product List | Glossary On
Versions: 1 2 3 4 5 6 7 8 9 10 11 12 13 14
000
FTUS41 KAKQ 302331
TAFSBY
TAF
KSBY 302331Z 3100/3124 28005KT P6SM SCT250
     FM310900 24004KT P6SM BKN150
     FM311500 23014G24KT P6SM BKN250
     FM311800 21020G28KT P6SM BKN100
     FM312200 13015G21KT P6SM BKN100=

USA.gov is the U.S. government's official web portal to all federal, state and local government web resources and services.